Time;durP1;ratioP1;P1;durP2;ratioP2;P2;SDS_P1;SDS_P2;PMS_P1;PMS_P2;Temp;Humidity;BMP_temperature;BMP_pressure;BME280_temperature;BME280_humidity;BME280_pressure;Samples;Min_cycle;Max_cycle;Signal;HPM_P1;HPM_P2
2021/10/24 00:01:03;;;;;;;17.20;7.78;;;8.20;99.90;;;;;;5010717;28;20034;-75
2021/10/24 00:03:30;;;;;;;17.13;7.75;;;8.10;99.90;;;;;;5011440;28;20022;-74
2021/10/24 00:05:56;;;;;;;18.98;8.32;;;8.20;99.90;;;;;;5012029;28;20026;-76
2021/10/24 00:08:22;;;;;;;18.70;8.77;;;8.10;99.90;;;;;;5000728;28;20029;-74
2021/10/24 00:10:48;;;;;;;18.50;8.25;;;8.10;99.90;;;;;;5010742;28;20026;-77
2021/10/24 00:13:13;;;;;;;19.55;8.20;;;8.10;99.90;;;;;;5010614;28;20028;-75
2021/10/24 00:15:39;;;;;;;18.23;8.07;;;8.10;99.90;;;;;;4990340;28;20038;-74
2021/10/24 00:18:05;;;;;;;14.35;8.05;;;8.10;99.90;;;;;;4999280;28;20030;-75
2021/10/24 00:20:32;;;;;;;18.75;8.15;;;8.10;99.90;;;;;;4999007;28;20030;-75
2021/10/24 00:22:59;;;;;;;15.88;7.68;;;8.10;99.90;;;;;;4991845;28;20105;-73
2021/10/24 00:25:25;;;;;;;20.95;8.43;;;8.10;99.90;;;;;;4991290;28;20045;-76
2021/10/24 00:27:51;;;;;;;15.32;7.78;;;8.10;99.90;;;;;;4991856;28;20144;-76
2021/10/24 00:30:16;;;;;;;16.75;7.97;;;8.00;99.90;;;;;;4992333;28;20034;-75
2021/10/24 00:32:42;;;;;;;18.58;8.52;;;8.00;99.90;;;;;;4995183;28;20360;-76
2021/10/24 00:35:08;;;;;;;16.90;7.80;;;8.00;99.90;;;;;;5003027;28;20030;-77
2021/10/24 00:37:34;;;;;;;17.40;8.10;;;8.00;99.90;;;;;;5013266;28;20068;-74
2021/10/24 00:39:59;;;;;;;17.40;8.07;;;8.00;99.90;;;;;;5015379;28;20409;-75
2021/10/24 00:42:25;;;;;;;14.43;7.38;;;8.00;99.90;;;;;;5012984;28;20029;-76
2021/10/24 00:44:51;;;;;;;18.13;8.23;;;8.00;99.90;;;;;;5013971;28;20018;-74
2021/10/24 00:47:16;;;;;;;20.00;8.43;;;7.90;99.90;;;;;;5013095;28;20252;-74
2021/10/24 00:49:42;;;;;;;17.13;8.15;;;7.90;99.90;;;;;;5013284;28;20033;-74
2021/10/24 00:52:09;;;;;;;18.48;7.93;;;7.90;99.90;;;;;;5006493;28;20032;-75
2021/10/24 00:54:37;;;;;;;20.23;8.15;;;7.90;99.90;;;;;;5011020;28;20025;-74
2021/10/24 00:57:04;;;;;;;17.67;7.47;;;7.90;99.90;;;;;;4994502;28;20047;-74
2021/10/24 00:59:29;;;;;;;18.05;8.50;;;7.90;99.90;;;;;;5011393;28;20524;-75
2021/10/24 01:01:55;;;;;;;21.13;8.18;;;7.90;99.90;;;;;;5006555;28;20037;-75
2021/10/24 01:04:22;;;;;;;21.58;8.65;;;7.90;99.90;;;;;;4995685;28;20117;-76
2021/10/24 01:06:50;;;;;;;16.90;8.48;;;7.90;99.90;;;;;;4994270;28;20026;-74
2021/10/24 01:09:18;;;;;;;16.55;7.85;;;7.90;99.90;;;;;;4993967;28;20057;-74
2021/10/24 01:11:44;;;;;;;18.73;7.68;;;7.80;99.90;;;;;;4994400;28;20027;-77
2021/10/24 01:14:11;;;;;;;21.40;8.75;;;7.90;99.90;;;;;;4994779;28;20117;-74
2021/10/24 01:16:39;;;;;;;23.42;8.77;;;7.90;99.90;;;;;;4999216;28;20022;-74
2021/10/24 01:19:07;;;;;;;16.58;8.40;;;7.90;99.90;;;;;;4999398;28;20379;-73
2021/10/24 01:21:34;;;;;;;15.25;8.38;;;7.90;99.90;;;;;;5007979;28;20045;-75
2021/10/24 01:24:00;;;;;;;20.27;8.52;;;7.80;99.90;;;;;;4998868;28;20122;-76
2021/10/24 01:26:28;;;;;;;16.77;7.45;;;7.80;99.90;;;;;;4992954;28;20022;-76
2021/10/24 01:28:54;;;;;;;16.42;7.88;;;7.80;99.90;;;;;;4994934;28;20109;-75
2021/10/24 01:31:20;;;;;;;21.63;9.05;;;7.80;99.90;;;;;;4994996;28;20524;-76
2021/10/24 01:33:45;;;;;;;14.88;7.72;;;7.80;99.90;;;;;;4994223;28;20102;-76
2021/10/24 01:36:11;;;;;;;18.13;8.30;;;7.80;99.90;;;;;;4994510;28;20054;-76
2021/10/24 01:38:42;;;;;;;19.00;8.18;;;7.80;99.90;;;;;;4992314;28;20050;-76
2021/10/24 01:41:10;;;;;;;17.38;8.40;;;7.80;99.90;;;;;;4994548;28;20100;-76
2021/10/24 01:43:36;;;;;;;19.02;8.43;;;7.70;99.90;;;;;;4992525;28;20098;-76
2021/10/24 01:46:02;;;;;;;17.55;8.82;;;7.70;99.90;;;;;;4993312;28;20408;-76
2021/10/24 01:48:28;;;;;;;17.80;8.30;;;7.70;99.90;;;;;;4993687;28;20398;-76
2021/10/24 01:50:54;;;;;;;18.48;9.02;;;7.70;99.90;;;;;;4994599;28;20105;-76
2021/10/24 01:53:26;;;;;;;18.27;8.30;;;7.70;99.90;;;;;;4993121;28;20471;-76
2021/10/24 01:55:53;;;;;;;18.05;8.10;;;7.70;99.90;;;;;;4993150;28;20033;-76
2021/10/24 01:58:19;;;;;;;23.70;9.18;;;7.70;99.90;;;;;;4994415;28;20029;-76
2021/10/24 02:00:46;;;;;;;17.52;8.65;;;7.70;99.90;;;;;;4993702;28;20117;-76
2021/10/24 02:03:12;;;;;;;16.02;9.00;;;7.60;99.90;;;;;;4994407;28;20089;-76
2021/10/24 02:05:38;;;;;;;16.15;8.25;;;7.70;99.90;;;;;;4992346;28;20018;-76
2021/10/24 02:08:05;;;;;;;15.13;7.35;;;7.60;99.90;;;;;;4993211;28;20531;-76
2021/10/24 02:10:31;;;;;;;18.88;8.65;;;7.60;99.90;;;;;;4993637;28;20022;-76
2021/10/24 02:12:57;;;;;;;18.27;7.43;;;7.60;99.90;;;;;;4992822;28;20415;-76
2021/10/24 02:15:23;;;;;;;15.80;7.43;;;7.60;99.90;;;;;;4992787;28;20018;-74
2021/10/24 02:17:49;;;;;;;16.45;8.52;;;7.60;99.90;;;;;;4992097;28;20027;-77
2021/10/24 02:20:15;;;;;;;18.80;9.02;;;7.60;99.90;;;;;;4993554;28;20038;-74
2021/10/24 02:22:40;;;;;;;14.75;7.55;;;7.60;99.90;;;;;;4991976;28;20072;-74
2021/10/24 02:25:07;;;;;;;19.65;8.40;;;7.60;99.90;;;;;;4993999;28;20105;-75
2021/10/24 02:27:33;;;;;;;20.73;7.85;;;7.50;99.90;;;;;;4993193;28;20463;-75
2021/10/24 02:29:59;;;;;;;16.92;8.00;;;7.50;99.90;;;;;;4993762;28;20037;-74
2021/10/24 02:32:25;;;;;;;20.63;9.07;;;7.50;99.90;;;;;;4992370;28;20023;-75
2021/10/24 02:34:50;;;;;;;15.52;7.75;;;7.50;99.90;;;;;;4991711;28;20076;-75
2021/10/24 02:37:16;;;;;;;18.35;7.68;;;7.50;99.90;;;;;;4993448;28;20050;-75
2021/10/24 02:39:42;;;;;;;15.88;7.15;;;7.50;99.90;;;;;;4993184;28;20142;-75
2021/10/24 02:42:08;;;;;;;13.60;7.93;;;7.50;99.90;;;;;;4993794;28;20076;-75
2021/10/24 02:44:34;;;;;;;17.55;8.55;;;7.50;99.90;;;;;;4992808;28;20158;-75
2021/10/24 02:47:00;;;;;;;18.15;8.63;;;7.50;99.90;;;;;;4993432;28;20029;-75
2021/10/24 02:49:26;;;;;;;21.50;9.15;;;7.40;99.90;;;;;;4991993;28;20022;-75
2021/10/24 02:51:53;;;;;;;16.73;8.82;;;7.40;99.90;;;;;;4992523;28;20505;-75
2021/10/24 02:54:19;;;;;;;15.63;8.00;;;7.40;99.90;;;;;;4991164;28;20023;-76
2021/10/24 02:56:45;;;;;;;18.50;8.80;;;7.40;99.90;;;;;;4992795;28;20027;-77
2021/10/24 02:59:11;;;;;;;18.70;8.63;;;7.40;99.90;;;;;;4993323;28;20034;-76
2021/10/24 03:01:37;;;;;;;18.40;8.07;;;7.40;99.90;;;;;;4992335;28;20533;-77
2021/10/24 03:04:03;;;;;;;20.15;8.20;;;7.40;99.90;;;;;;4993165;28;20022;-76
2021/10/24 03:06:30;;;;;;;18.10;8.68;;;7.40;99.90;;;;;;4991790;28;20014;-76
2021/10/24 03:08:56;;;;;;;18.17;8.55;;;7.40;99.90;;;;;;4992584;28;20029;-77
2021/10/24 03:11:22;;;;;;;14.82;7.55;;;7.40;99.90;;;;;;4993086;28;20105;-76
2021/10/24 03:13:47;;;;;;;14.27;6.57;;;7.30;99.90;;;;;;4992430;28;20130;-76
2021/10/24 03:16:13;;;;;;;19.38;8.48;;;7.30;99.90;;;;;;4992995;28;20075;-76
2021/10/24 03:18:39;;;;;;;15.95;6.80;;;7.30;99.90;;;;;;4992167;28;20026;-77
2021/10/24 03:21:04;;;;;;;21.73;9.05;;;7.30;99.90;;;;;;4992584;28;20042;-76
2021/10/24 03:23:31;;;;;;;17.20;8.75;;;7.30;99.90;;;;;;4992939;28;20022;-76
2021/10/24 03:25:56;;;;;;;19.70;8.85;;;7.20;99.90;;;;;;4992385;28;20051;-76
2021/10/24 03:28:22;;;;;;;20.98;9.25;;;7.20;99.90;;;;;;4992531;28;20061;-76
2021/10/24 03:30:47;;;;;;;18.27;7.30;;;7.20;99.90;;;;;;4990981;28;20081;-76
2021/10/24 03:33:13;;;;;;;14.38;7.40;;;7.20;99.90;;;;;;4992851;28;20026;-76
2021/10/24 03:35:39;;;;;;;16.80;8.70;;;7.20;99.90;;;;;;4992247;28;20027;-77
2021/10/24 03:38:05;;;;;;;15.73;7.93;;;7.20;99.90;;;;;;4991310;28;20414;-76
2021/10/24 03:40:30;;;;;;;15.07;7.13;;;7.20;99.90;;;;;;4992597;28;20042;-76
2021/10/24 03:42:56;;;;;;;14.77;5.95;;;7.20;99.90;;;;;;4991795;28;20022;-76
2021/10/24 03:45:22;;;;;;;20.52;7.95;;;7.20;99.90;;;;;;4992598;28;20022;-76
2021/10/24 03:47:47;;;;;;;19.48;9.00;;;7.20;99.90;;;;;;5009639;28;20113;-77
2021/10/24 03:50:13;;;;;;;23.45;9.38;;;7.20;99.90;;;;;;5026707;28;20030;-76
2021/10/24 03:52:39;;;;;;;17.90;9.93;;;7.20;99.90;;;;;;5011932;28;20459;-77
2021/10/24 03:55:10;;;;;;;19.73;9.85;;;7.10;99.90;;;;;;5011670;28;20390;-76
2021/10/24 03:57:38;;;;;;;20.77;9.32;;;7.20;99.90;;;;;;5010888;28;20037;-77
2021/10/24 04:00:04;;;;;;;26.30;10.23;;;7.10;99.90;;;;;;5010826;28;20462;-76
2021/10/24 04:02:30;;;;;;;20.25;8.50;;;7.10;99.90;;;;;;5010929;28;20025;-76
2021/10/24 04:04:55;;;;;;;21.55;9.05;;;7.10;99.90;;;;;;5010867;28;20038;-76
2021/10/24 04:07:21;;;;;;;15.80;8.50;;;7.10;99.90;;;;;;5016226;28;20052;-76
2021/10/24 04:09:46;;;;;;;15.38;7.90;;;7.10;99.90;;;;;;5030345;28;20525;-76
2021/10/24 04:12:12;;;;;;;17.40;7.63;;;7.10;99.90;;;;;;5011130;28;20030;-76
2021/10/24 04:14:39;;;;;;;17.42;8.55;;;7.10;99.90;;;;;;5006052;28;20053;-76
2021/10/24 04:17:04;;;;;;;17.13;7.65;;;7.10;99.90;;;;;;5015798;28;20054;-76
2021/10/24 04:19:30;;;;;;;14.43;7.25;;;7.10;99.90;;;;;;5014635;28;20548;-76
2021/10/24 04:21:56;;;;;;;12.70;7.20;;;7.10;99.90;;;;;;5013657;28;20451;-76
2021/10/24 04:24:22;;;;;;;19.38;8.02;;;7.00;99.90;;;;;;5015776;28;20022;-76
2021/10/24 04:26:48;;;;;;;16.73;7.10;;;7.00;99.90;;;;;;5013762;28;20032;-76
2021/10/24 04:29:14;;;;;;;16.85;6.95;;;7.00;99.90;;;;;;5014782;28;20022;-75
2021/10/24 04:31:39;;;;;;;21.10;7.90;;;7.10;99.90;;;;;;5013889;28;20080;-76
2021/10/24 04:34:05;;;;;;;14.40;7.20;;;7.00;99.90;;;;;;5015331;28;20430;-75
2021/10/24 04:36:31;;;;;;;19.00;6.68;;;7.00;99.90;;;;;;5013719;28;20109;-75
2021/10/24 04:38:56;;;;;;;17.55;7.07;;;7.00;99.90;;;;;;5013886;28;20046;-75
2021/10/24 04:41:22;;;;;;;12.70;5.88;;;7.00;99.90;;;;;;5015181;28;20117;-76
2021/10/24 04:43:48;;;;;;;12.20;6.43;;;7.00;99.90;;;;;;5014751;28;20089;-76
2021/10/24 04:46:13;;;;;;;15.10;6.22;;;7.00;99.90;;;;;;5014869;28;20359;-76
2021/10/24 04:48:39;;;;;;;13.50;6.55;;;7.00;99.90;;;;;;5014792;28;20025;-76
2021/10/24 04:51:05;;;;;;;17.48;8.02;;;7.00;99.90;;;;;;5015172;28;20037;-76
2021/10/24 04:53:30;;;;;;;14.38;7.05;;;7.00;99.90;;;;;;5014981;28;20116;-76
2021/10/24 04:55:56;;;;;;;13.93;6.82;;;6.90;99.90;;;;;;5014526;28;20029;-76
2021/10/24 04:58:21;;;;;;;21.92;8.57;;;6.90;99.90;;;;;;5014485;28;20026;-76
2021/10/24 05:00:47;;;;;;;12.38;5.85;;;6.90;99.90;;;;;;5013876;28;20501;-76
2021/10/24 05:03:13;;;;;;;13.30;6.93;;;6.90;99.90;;;;;;5014450;28;20475;-76
2021/10/24 05:05:39;;;;;;;15.32;6.95;;;6.90;99.90;;;;;;5014459;28;20076;-76
2021/10/24 05:08:05;;;;;;;14.70;7.05;;;6.90;99.90;;;;;;5014894;28;20022;-76
2021/10/24 05:10:31;;;;;;;12.85;6.20;;;6.90;99.90;;;;;;5014648;28;20038;-77
2021/10/24 05:12:57;;;;;;;15.43;7.45;;;6.90;99.90;;;;;;5014284;28;20106;-76
2021/10/24 05:15:23;;;;;;;11.18;5.82;;;6.90;99.90;;;;;;5009867;28;20117;-75
2021/10/24 05:17:49;;;;;;;16.20;6.72;;;6.90;99.90;;;;;;4993719;28;20030;-76
2021/10/24 05:20:15;;;;;;;13.85;6.90;;;6.80;99.90;;;;;;5009464;28;20036;-76
2021/10/24 05:22:41;;;;;;;14.40;6.43;;;6.80;99.90;;;;;;5013992;28;20028;-76
2021/10/24 05:25:07;;;;;;;12.48;6.32;;;6.80;99.90;;;;;;5014602;28;20026;-76
2021/10/24 05:27:33;;;;;;;9.30;5.50;;;6.90;99.90;;;;;;5029685;28;20425;-76
2021/10/24 05:29:58;;;;;;;12.07;6.50;;;6.80;99.90;;;;;;5013908;28;20030;-76
2021/10/24 05:32:24;;;;;;;12.00;6.97;;;6.80;99.90;;;;;;5014619;28;20520;-75
2021/10/24 05:34:50;;;;;;;15.10;7.18;;;6.80;99.90;;;;;;5014126;28;20085;-76
2021/10/24 05:37:15;;;;;;;13.95;7.35;;;6.80;99.90;;;;;;5014470;28;20474;-75
2021/10/24 05:39:41;;;;;;;13.93;7.40;;;6.70;99.90;;;;;;5014059;28;20021;-75
2021/10/24 05:42:07;;;;;;;11.80;6.25;;;6.70;99.90;;;;;;5014014;28;20163;-75
2021/10/24 05:44:33;;;;;;;17.10;6.75;;;6.70;99.90;;;;;;5014212;28;20049;-75
2021/10/24 05:46:59;;;;;;;11.98;7.28;;;6.70;99.90;;;;;;5013302;28;20026;-76
2021/10/24 05:49:24;;;;;;;17.10;6.90;;;6.70;99.90;;;;;;5014147;28;20018;-76
2021/10/24 05:51:50;;;;;;;17.00;6.40;;;6.70;99.90;;;;;;5028705;28;20062;-75
2021/10/24 05:54:16;;;;;;;13.90;6.30;;;6.70;99.90;;;;;;5012770;28;20447;-76
2021/10/24 05:56:42;;;;;;;12.82;6.22;;;6.70;99.90;;;;;;5013965;28;20065;-76
2021/10/24 05:59:07;;;;;;;9.73;6.00;;;6.70;99.90;;;;;;5013328;28;20030;-75
2021/10/24 06:01:33;;;;;;;11.55;5.85;;;6.70;99.90;;;;;;5021954;28;20032;-75
2021/10/24 06:03:59;;;;;;;13.52;6.70;;;6.70;99.90;;;;;;5032714;28;20017;-75
2021/10/24 06:06:25;;;;;;;12.82;5.95;;;6.70;99.90;;;;;;5032319;28;20017;-75
2021/10/24 06:08:51;;;;;;;16.65;6.32;;;6.70;99.90;;;;;;5029939;28;20025;-75
2021/10/24 06:11:28;;;;;;;16.63;6.97;;;6.70;99.90;;;;;;5016878;28;20034;-77
2021/10/24 06:13:55;;;;;;;16.38;7.18;;;6.70;99.90;;;;;;5022857;28;20078;-77
2021/10/24 06:16:20;;;;;;;18.92;7.40;;;6.60;99.90;;;;;;5013442;28;20026;-76
2021/10/24 06:18:46;;;;;;;12.38;6.40;;;6.60;99.90;;;;;;5013269;28;20372;-77
2021/10/24 06:21:12;;;;;;;13.32;6.95;;;6.60;99.90;;;;;;5013238;28;20034;-77
2021/10/24 06:23:38;;;;;;;11.10;6.68;;;6.60;99.90;;;;;;5013144;28;20033;-77
2021/10/24 06:26:03;;;;;;;13.05;7.15;;;6.60;99.90;;;;;;5008200;28;20415;-77
2021/10/24 06:28:29;;;;;;;11.15;6.15;;;6.60;99.90;;;;;;5016963;28;20144;-77
2021/10/24 06:30:55;;;;;;;12.00;6.70;;;6.60;99.90;;;;;;5012835;28;20120;-77
2021/10/24 06:33:21;;;;;;;13.20;7.32;;;6.60;99.90;;;;;;5013616;28;20108;-77
2021/10/24 06:35:46;;;;;;;16.48;7.18;;;6.60;99.90;;;;;;5013161;28;20033;-76
2021/10/24 06:38:12;;;;;;;14.27;6.45;;;6.60;99.90;;;;;;4993506;28;20038;-75
2021/10/24 06:40:38;;;;;;;11.68;6.70;;;6.60;99.90;;;;;;5012513;28;20030;-76
2021/10/24 06:43:04;;;;;;;12.73;6.13;;;6.60;99.90;;;;;;5011207;28;20014;-76
2021/10/24 06:45:31;;;;;;;16.00;6.57;;;6.60;99.90;;;;;;5016633;28;20051;-75
2021/10/24 06:47:56;;;;;;;14.32;6.68;;;6.60;99.90;;;;;;5032248;28;20021;-75
2021/10/24 06:50:22;;;;;;;10.80;6.20;;;6.60;99.90;;;;;;5031591;28;20532;-75
2021/10/24 06:52:48;;;;;;;14.25;6.55;;;6.60;99.90;;;;;;5023162;28;20021;-75
2021/10/24 06:55:14;;;;;;;18.23;7.03;;;6.60;99.90;;;;;;5012894;28;20030;-75
2021/10/24 06:57:47;;;;;;;12.80;6.55;;;6.60;99.90;;;;;;5012871;28;20435;-75
2021/10/24 07:00:14;;;;;;;13.35;7.43;;;6.60;99.90;;;;;;5011274;28;20029;-75
2021/10/24 07:02:39;;;;;;;11.65;6.53;;;6.60;99.90;;;;;;5012503;28;20030;-75
2021/10/24 07:05:05;;;;;;;14.18;7.03;;;6.70;99.90;;;;;;5011437;28;20022;-75
2021/10/24 07:07:31;;;;;;;11.93;7.40;;;6.70;99.90;;;;;;5011471;28;20168;-75
2021/10/24 07:09:56;;;;;;;13.40;7.07;;;6.80;99.90;;;;;;5010505;28;20031;-76
2021/10/24 07:12:22;;;;;;;15.77;7.20;;;6.80;99.90;;;;;;5012616;28;20531;-74
2021/10/24 07:14:48;;;;;;;13.95;7.53;;;6.80;99.90;;;;;;5012712;28;20022;-77
2021/10/24 07:17:13;;;;;;;18.02;7.13;;;6.80;99.90;;;;;;5007337;28;20029;-74
2021/10/24 07:19:40;;;;;;;15.80;7.47;;;6.80;99.90;;;;;;5011821;28;20101;-75
2021/10/24 07:22:05;;;;;;;16.77;7.82;;;6.90;99.90;;;;;;5011915;28;20021;-75
2021/10/24 07:24:31;;;;;;;13.18;7.32;;;6.90;99.90;;;;;;5012214;28;20029;-76
2021/10/24 07:26:57;;;;;;;15.70;8.07;;;6.90;99.90;;;;;;5011441;28;20029;-75
2021/10/24 07:29:22;;;;;;;18.67;7.15;;;6.90;99.90;;;;;;5011863;28;20108;-76
2021/10/24 07:31:49;;;;;;;13.57;7.00;;;7.00;99.90;;;;;;5011696;28;20032;-76
2021/10/24 07:34:15;;;;;;;13.77;7.35;;;7.00;99.90;;;;;;5011082;28;20410;-75
2021/10/24 07:36:40;;;;;;;14.43;7.18;;;7.00;99.90;;;;;;5011828;28;20444;-76
2021/10/24 07:39:06;;;;;;;16.27;7.45;;;7.10;99.90;;;;;;5011330;28;20032;-75
2021/10/24 07:41:32;;;;;;;15.23;6.75;;;7.10;99.90;;;;;;5010521;28;20470;-76
2021/10/24 07:43:57;;;;;;;11.90;6.75;;;7.10;99.90;;;;;;5011622;28;20316;-75
2021/10/24 07:46:24;;;;;;;14.38;7.50;;;7.10;99.90;;;;;;5011578;28;20412;-76
2021/10/24 07:48:50;;;;;;;12.25;7.50;;;7.10;99.90;;;;;;5007864;28;20444;-77
2021/10/24 07:51:15;;;;;;;14.70;7.43;;;7.20;99.90;;;;;;5010128;28;20116;-76
2021/10/24 07:53:41;;;;;;;15.20;7.07;;;7.20;99.90;;;;;;5011595;28;20028;-76
2021/10/24 07:56:07;;;;;;;13.77;7.63;;;7.30;99.90;;;;;;5010862;28;20025;-76
2021/10/24 07:58:33;;;;;;;15.63;7.22;;;7.30;99.90;;;;;;5011977;28;20026;-76
2021/10/24 08:00:59;;;;;;;18.75;8.77;;;7.30;99.90;;;;;;5010261;28;20030;-76
2021/10/24 08:03:25;;;;;;;19.90;8.82;;;7.30;99.90;;;;;;5010524;28;20018;-75
2021/10/24 08:05:51;;;;;;;15.10;7.68;;;7.30;99.90;;;;;;5010704;28;20022;-76
2021/10/24 08:08:16;;;;;;;21.58;10.25;;;7.40;99.90;;;;;;5011561;28;20064;-76
2021/10/24 08:10:42;;;;;;;20.77;9.88;;;7.40;99.90;;;;;;5010897;28;20080;-76
2021/10/24 08:13:08;;;;;;;22.33;10.85;;;7.40;99.90;;;;;;5011533;28;20022;-75
2021/10/24 08:15:33;;;;;;;19.08;9.85;;;7.40;99.90;;;;;;5010787;28;20037;-75
2021/10/24 08:17:59;;;;;;;17.75;8.90;;;7.50;99.90;;;;;;5010353;28;20045;-77
2021/10/24 08:20:25;;;;;;;20.50;9.73;;;7.50;99.90;;;;;;5012217;28;20533;-76
2021/10/24 08:22:51;;;;;;;17.50;9.80;;;7.60;99.90;;;;;;5012056;28;20069;-77
2021/10/24 08:25:17;;;;;;;23.40;8.68;;;7.60;99.90;;;;;;5009680;28;20018;-78
2021/10/24 08:27:43;;;;;;;18.67;8.73;;;7.70;99.90;;;;;;5010570;28;20129;-77
2021/10/24 08:30:09;;;;;;;23.63;10.45;;;7.70;99.90;;;;;;5011239;28;20113;-78
2021/10/24 08:32:36;;;;;;;18.80;9.50;;;7.70;99.90;;;;;;5011843;28;20022;-78
2021/10/24 08:35:03;;;;;;;20.65;9.60;;;7.80;99.90;;;;;;5011233;28;20023;-78
2021/10/24 08:37:29;;;;;;;18.50;8.65;;;7.80;99.90;;;;;;5010051;28;20061;-77
2021/10/24 08:39:56;;;;;;;18.70;8.73;;;7.90;99.90;;;;;;5010037;28;20029;-77
2021/10/24 08:42:32;;;;;;;19.45;8.48;;;7.90;99.90;;;;;;4999957;28;20014;-75
2021/10/24 08:44:59;;;;;;;20.42;8.07;;;7.90;99.90;;;;;;5009189;28;20397;-74
2021/10/24 08:47:26;;;;;;;16.85;8.13;;;8.00;99.90;;;;;;5008819;28;20030;-77
2021/10/24 08:49:52;;;;;;;20.33;8.90;;;8.00;99.90;;;;;;4998878;28;20113;-76
2021/10/24 08:52:23;;;;;;;17.38;8.30;;;8.10;99.90;;;;;;4992846;28;20514;-75
2021/10/24 08:54:53;;;;;;;17.08;7.65;;;8.10;99.90;;;;;;4996281;28;20473;-76
2021/10/24 08:57:26;;;;;;;22.30;8.80;;;8.20;99.90;;;;;;5014369;28;20029;-75
2021/10/24 08:59:57;;;;;;;16.40;8.65;;;8.20;99.90;;;;;;5001841;28;20046;-75
2021/10/24 09:02:25;;;;;;;19.23;7.78;;;8.20;99.90;;;;;;5007667;28;20089;-74
2021/10/24 09:04:52;;;;;;;21.58;8.68;;;8.30;99.90;;;;;;4997630;28;20140;-75
2021/10/24 09:07:22;;;;;;;20.95;9.27;;;8.30;99.90;;;;;;4994659;28;20022;-74
2021/10/24 09:09:48;;;;;;;23.80;9.43;;;8.40;99.90;;;;;;4995520;28;20504;-75
2021/10/24 09:12:15;;;;;;;21.35;9.32;;;8.40;99.90;;;;;;4999491;28;20366;-74
2021/10/24 09:14:45;;;;;;;21.50;9.63;;;8.50;99.90;;;;;;5014399;28;20535;-75
2021/10/24 09:17:19;;;;;;;19.27;8.75;;;8.50;99.90;;;;;;5012432;28;20041;-77
2021/10/24 09:19:51;;;;;;;22.55;9.77;;;8.60;99.90;;;;;;5014656;28;20081;-75
2021/10/24 09:22:19;;;;;;;20.73;8.43;;;8.60;99.90;;;;;;5007817;28;20026;-75
2021/10/24 09:25:32;;;;;;;20.40;8.85;;;8.60;99.90;;;;;;5011692;28;20046;-75
2021/10/24 09:28:03;;;;;;;18.35;8.18;;;8.70;99.90;;;;;;5012742;28;20057;-76
2021/10/24 09:30:36;;;;;;;18.67;9.47;;;8.70;99.90;;;;;;4996312;28;20042;-75
2021/10/24 09:33:10;;;;;;;19.08;8.43;;;8.80;99.90;;;;;;5007647;28;20022;-75
2021/10/24 09:35:38;;;;;;;19.33;8.48;;;8.80;99.90;;;;;;5013352;28;20354;-75
2021/10/24 09:38:07;;;;;;;18.50;8.90;;;8.90;99.90;;;;;;5013631;28;20045;-75
2021/10/24 09:40:45;;;;;;;21.65;8.68;;;8.90;99.90;;;;;;5013916;28;20049;-76
2021/10/24 09:43:12;;;;;;;21.95;8.90;;;8.90;99.90;;;;;;4995849;28;20157;-75
2021/10/24 09:45:40;;;;;;;22.15;8.57;;;9.00;99.90;;;;;;4994414;28;20054;-75
2021/10/24 09:48:11;;;;;;;16.58;7.30;;;9.10;99.90;;;;;;4992565;28;20018;-77
2021/10/24 09:50:39;;;;;;;18.02;8.10;;;9.10;99.90;;;;;;4994629;28;20458;-76
2021/10/24 09:53:17;;;;;;;17.55;9.13;;;9.10;99.90;;;;;;5006315;28;20033;-78
2021/10/24 09:55:47;;;;;;;19.95;8.52;;;9.20;99.90;;;;;;5013961;28;20026;-76
2021/10/24 09:58:13;;;;;;;20.23;8.10;;;9.20;99.90;;;;;;5013359;28;20026;-76
2021/10/24 10:00:40;;;;;;;19.42;8.80;;;9.20;99.90;;;;;;5014211;28;20030;-77
2021/10/24 10:03:07;;;;;;;17.25;8.35;;;9.20;99.90;;;;;;5011431;28;20108;-75
2021/10/24 10:05:37;;;;;;;16.73;7.45;;;9.20;99.90;;;;;;5013847;28;20025;-76
2021/10/24 10:08:05;;;;;;;19.95;9.38;;;9.30;99.90;;;;;;5013163;28;20018;-76
2021/10/24 10:10:32;;;;;;;16.85;8.40;;;9.30;99.90;;;;;;5006732;28;20109;-76
2021/10/24 10:13:02;;;;;;;18.88;8.70;;;9.30;99.90;;;;;;4994175;28;20022;-76
2021/10/24 10:15:34;;;;;;;17.63;8.43;;;9.30;99.90;;;;;;4992658;28;20018;-75
2021/10/24 10:18:04;;;;;;;17.20;8.85;;;9.40;99.90;;;;;;4993719;28;20084;-78
2021/10/24 10:20:33;;;;;;;19.35;9.48;;;9.40;99.90;;;;;;5019152;28;20026;-77
2021/10/24 10:23:23;;;;;;;19.58;8.05;;;9.40;99.90;;;;;;4996147;28;20105;-75
2021/10/24 10:25:50;;;;;;;16.90;7.63;;;9.50;99.90;;;;;;5025335;28;20065;-77
2021/10/24 10:28:45;;;;;;;18.95;7.15;;;9.60;99.90;;;;;;5025695;28;20383;-76
2021/10/24 10:31:16;;;;;;;19.90;8.05;;;9.60;99.90;;;;;;5002419;28;20164;-77
2021/10/24 10:34:03;;;;;;;15.52;7.68;;;9.70;99.90;;;;;;5012114;28;20032;-74
2021/10/24 10:36:44;;;;;;;16.77;8.05;;;9.80;99.90;;;;;;4994371;28;20023;-75
2021/10/24 10:39:35;;;;;;;19.35;8.82;;;9.90;99.90;;;;;;4991849;28;20049;-77
2021/10/24 10:42:08;;;;;;;21.25;9.68;;;10.00;99.90;;;;;;4993564;28;20064;-75
2021/10/24 10:44:34;;;;;;;20.35;8.77;;;10.10;99.90;;;;;;4992120;28;20117;-75
2021/10/24 10:47:00;;;;;;;17.67;8.40;;;10.30;99.90;;;;;;4992249;28;20418;-75
2021/10/24 10:49:27;;;;;;;20.65;8.35;;;10.50;99.90;;;;;;4993254;28;20080;-75
2021/10/24 10:51:54;;;;;;;21.92;9.02;;;10.70;99.90;;;;;;4992104;28;20015;-75
2021/10/24 10:54:20;;;;;;;26.50;10.07;;;10.90;99.90;;;;;;4992997;28;20022;-76
2021/10/24 10:56:46;;;;;;;22.35;8.73;;;11.00;99.90;;;;;;4992269;28;20046;-76
2021/10/24 10:59:28;;;;;;;21.83;9.10;;;11.20;99.90;;;;;;4992717;28;20018;-75
2021/10/24 11:01:54;;;;;;;20.20;9.35;;;11.40;99.90;;;;;;4993283;28;20521;-76
2021/10/24 11:04:21;;;;;;;23.15;10.93;;;11.50;99.90;;;;;;4991295;28;20018;-76
2021/10/24 11:06:50;;;;;;;24.00;9.80;;;11.70;99.90;;;;;;4993225;28;20023;-76
2021/10/24 11:09:39;;;;;;;20.83;8.50;;;11.90;99.90;;;;;;4990860;28;20038;-76
2021/10/24 11:12:08;;;;;;;18.67;8.30;;;12.00;99.90;;;;;;4993142;28;20386;-75
2021/10/24 11:14:42;;;;;;;21.35;9.73;;;12.10;99.90;;;;;;4992091;28;20370;-75
2021/10/24 11:17:08;;;;;;;21.00;9.25;;;12.30;99.90;;;;;;4992117;28;20202;-76
2021/10/24 11:19:37;;;;;;;19.48;9.35;;;12.30;99.90;;;;;;4991792;28;20185;-76
2021/10/24 11:22:06;;;;;;;17.08;8.43;;;12.50;99.90;;;;;;4992918;28;20026;-75
2021/10/24 11:24:44;;;;;;;18.30;7.75;;;12.50;99.90;;;;;;4991212;28;20352;-77
2021/10/24 11:27:15;;;;;;;20.88;9.32;;;12.70;99.90;;;;;;4992497;28;20019;-77
2021/10/24 11:30:00;;;;;;;21.48;9.00;;;12.70;99.90;;;;;;4992815;28;20022;-76
2021/10/24 11:32:34;;;;;;;14.10;6.57;;;12.90;99.90;;;;;;4992329;28;20019;-77
2021/10/24 11:35:14;;;;;;;15.88;7.57;;;12.90;99.90;;;;;;4992707;28;20049;-76
2021/10/24 11:37:46;;;;;;;14.57;7.47;;;13.00;99.90;;;;;;4992444;28;20039;-76
2021/10/24 11:40:17;;;;;;;15.18;6.78;;;13.10;99.90;;;;;;4992200;28;20034;-77
2021/10/24 11:43:03;;;;;;;17.35;7.15;;;13.10;99.90;;;;;;4991679;28;20340;-76
2021/10/24 11:45:34;;;;;;;18.05;9.13;;;13.10;99.90;;;;;;4990382;28;20029;-76
2021/10/24 11:48:05;;;;;;;13.18;6.88;;;13.10;99.90;;;;;;4992956;28;20018;-76
2021/10/24 11:51:08;;;;;;;15.18;7.75;;;13.00;99.90;;;;;;4991885;28;20029;-75
2021/10/24 11:53:38;;;;;;;14.93;7.35;;;12.90;99.90;;;;;;4991041;28;20049;-75
2021/10/24 11:56:05;;;;;;;12.77;6.55;;;12.90;99.90;;;;;;4992309;28;20378;-75
2021/10/24 12:01:24;;;;;;;11.82;6.38;;;12.90;99.90;;;;;;4991660;28;20164;-74
2021/10/24 12:03:53;;;;;;;14.00;6.75;;;12.90;99.90;;;;;;4992530;28;20447;-74
2021/10/24 12:06:38;;;;;;;11.13;5.65;;;12.90;99.90;;;;;;4990673;28;20090;-75
2021/10/24 12:09:12;;;;;;;15.05;6.75;;;12.80;99.90;;;;;;4992137;28;20096;-75
2021/10/24 12:11:43;;;;;;;10.57;5.78;;;12.80;99.90;;;;;;4992538;28;20105;-76
2021/10/24 12:14:12;;;;;;;13.23;6.00;;;12.80;99.90;;;;;;4991763;28;20100;-76
2021/10/24 12:16:43;;;;;;;13.25;7.10;;;12.80;99.90;;;;;;5000871;28;20026;-77
2021/10/24 12:19:15;;;;;;;;;;;12.80;99.90;;;;;;5006532;28;20041;-76
2021/10/24 12:22:14;;;;;;;12.48;5.80;;;12.70;99.90;;;;;;5005541;28;20431;-76
2021/10/24 12:24:41;;;;;;;11.43;6.45;;;12.70;99.90;;;;;;4994647;28;20069;-75
2021/10/24 12:27:18;;;;;;;11.88;6.32;;;12.80;99.90;;;;;;5008817;28;20072;-76
2021/10/24 12:30:08;;;;;;;8.43;4.50;;;12.80;99.90;;;;;;5003475;28;20014;-76
2021/10/24 12:32:53;;;;;;;9.23;4.75;;;12.80;99.90;;;;;;5007622;28;20022;-76
2021/10/24 12:35:19;;;;;;;12.38;6.03;;;12.80;99.90;;;;;;5006886;28;20026;-75
2021/10/24 12:37:55;;;;;;;10.60;5.20;;;12.70;99.90;;;;;;5006229;28;20465;-75
2021/10/24 12:40:23;;;;;;;14.07;5.97;;;12.70;99.90;;;;;;5003886;28;20561;-76
2021/10/24 12:43:05;;;;;;;11.32;5.82;;;12.60;99.90;;;;;;5006654;28;20395;-76
2021/10/24 12:45:40;;;;;;;11.90;5.45;;;12.60;99.90;;;;;;5007656;28;20026;-76
2021/10/24 12:48:05;;;;;;;13.15;5.72;;;12.50;99.90;;;;;;5007550;28;20029;-75
2021/10/24 12:50:33;;;;;;;13.18;6.25;;;12.50;99.90;;;;;;5004122;28;20038;-76
2021/10/24 12:53:03;;;;;;;14.07;6.18;;;12.50;99.80;;;;;;5006828;28;20038;-76